sensor_id;sensor_type;location;lat;lon;timestamp;temperature;humidity
7204;DHT22;3643;52.460;13.322;2023-03-01T00:01:41;-1.10;99.90
7204;DHT22;3643;52.460;13.322;2023-03-01T00:04:11;-1.10;99.90
7204;DHT22;3643;52.460;13.322;2023-03-01T00:06:39;-1.20;99.90
7204;DHT22;3643;52.460;13.322;2023-03-01T00:09:13;-1.20;99.90
7204;DHT22;3643;52.460;13.322;2023-03-01T00:11:43;-1.20;99.90
7204;DHT22;3643;52.460;13.322;2023-03-01T00:14:12;-1.30;99.90
7204;DHT22;3643;52.460;13.322;2023-03-01T00:16:41;-1.30;99.90
7204;DHT22;3643;52.460;13.322;2023-03-01T00:19:14;-1.30;99.90
7204;DHT22;3643;52.460;13.322;2023-03-01T00:21:43;-1.40;99.90
7204;DHT22;3643;52.460;13.322;2023-03-01T00:24:12;-1.40;99.90
7204;DHT22;3643;52.460;13.322;2023-03-01T00:26:40;-1.40;99.90
7204;DHT22;3643;52.460;13.322;2023-03-01T00:29:08;-1.40;99.90
7204;DHT22;3643;52.460;13.322;2023-03-01T00:31:37;-1.40;99.90
7204;DHT22;3643;52.460;13.322;2023-03-01T00:34:06;-1.50;99.90
7204;DHT22;3643;52.460;13.322;2023-03-01T00:36:37;-1.50;99.90
7204;DHT22;3643;52.460;13.322;2023-03-01T00:39:09;-1.50;99.90
7204;DHT22;3643;52.460;13.322;2023-03-01T00:41:37;-1.50;99.90
7204;DHT22;3643;52.460;13.322;2023-03-01T00:44:06;-1.50;99.90
7204;DHT22;3643;52.460;13.322;2023-03-01T00:46:35;-1.60;99.90
7204;DHT22;3643;52.460;13.322;2023-03-01T00:49:03;-1.60;99.90
7204;DHT22;3643;52.460;13.322;2023-03-01T00:51:32;-1.70;99.90
7204;DHT22;3643;52.460;13.322;2023-03-01T00:54:03;-1.70;99.90
7204;DHT22;3643;52.460;13.322;2023-03-01T00:56:31;-1.70;99.90
7204;DHT22;3643;52.460;13.322;2023-03-01T00:59:00;-1.80;99.90
7204;DHT22;3643;52.460;13.322;2023-03-01T01:01:30;-1.80;99.90
7204;DHT22;3643;52.460;13.322;2023-03-01T01:04:01;-1.80;99.90
7204;DHT22;3643;52.460;13.322;2023-03-01T01:06:32;-1.80;99.90
7204;DHT22;3643;52.460;13.322;2023-03-01T01:09:04;-1.80;99.90
7204;DHT22;3643;52.460;13.322;2023-03-01T01:11:34;-1.80;99.90
7204;DHT22;3643;52.460;13.322;2023-03-01T01:14:03;-1.80;99.90
7204;DHT22;3643;52.460;13.322;2023-03-01T01:16:31;-1.80;99.90
7204;DHT22;3643;52.460;13.322;2023-03-01T01:19:00;-1.80;99.90
7204;DHT22;3643;52.460;13.322;2023-03-01T01:21:29;-1.90;99.90
7204;DHT22;3643;52.460;13.322;2023-03-01T01:23:57;-1.90;99.90
7204;DHT22;3643;52.460;13.322;2023-03-01T01:26:29;-1.90;99.90
7204;DHT22;3643;52.460;13.322;2023-03-01T01:28:59;-1.80;99.90
7204;DHT22;3643;52.460;13.322;2023-03-01T01:31:28;-1.90;99.90
7204;DHT22;3643;52.460;13.322;2023-03-01T01:33:58;-1.90;99.90
7204;DHT22;3643;52.460;13.322;2023-03-01T01:36:27;-1.90;99.90
7204;DHT22;3643;52.460;13.322;2023-03-01T01:38:56;-1.90;99.90
7204;DHT22;3643;52.460;13.322;2023-03-01T01:41:28;-1.90;99.90
7204;DHT22;3643;52.460;13.322;2023-03-01T01:44:15;-1.90;99.90
7204;DHT22;3643;52.460;13.322;2023-03-01T01:46:50;-1.90;99.90
7204;DHT22;3643;52.460;13.322;2023-03-01T01:49:24;-1.90;99.90
7204;DHT22;3643;52.460;13.322;2023-03-01T01:52:00;-1.90;99.90
7204;DHT22;3643;52.460;13.322;2023-03-01T01:54:37;-2.00;99.90
7204;DHT22;3643;52.460;13.322;2023-03-01T01:57:13;-1.90;99.90
7204;DHT22;3643;52.460;13.322;2023-03-01T01:59:45;-1.90;99.90
7204;DHT22;3643;52.460;13.322;2023-03-01T02:02:15;-2.00;99.90
7204;DHT22;3643;52.460;13.322;2023-03-01T02:04:44;-1.90;99.90
7204;DHT22;3643;52.460;13.322;2023-03-01T02:07:15;-2.00;99.90
7204;DHT22;3643;52.460;13.322;2023-03-01T02:09:46;-1.90;99.90
7204;DHT22;3643;52.460;13.322;2023-03-01T02:12:18;-1.90;99.90
7204;DHT22;3643;52.460;13.322;2023-03-01T02:14:47;-2.00;99.90
7204;DHT22;3643;52.460;13.322;2023-03-01T02:17:16;-2.00;99.90
7204;DHT22;3643;52.460;13.322;2023-03-01T02:19:54;-2.00;99.90
7204;DHT22;3643;52.460;13.322;2023-03-01T02:22:24;-2.00;99.90
7204;DHT22;3643;52.460;13.322;2023-03-01T02:25:06;-2.00;99.90
7204;DHT22;3643;52.460;13.322;2023-03-01T02:27:42;-2.00;99.90
7204;DHT22;3643;52.460;13.322;2023-03-01T02:30:15;-2.00;99.90
7204;DHT22;3643;52.460;13.322;2023-03-01T02:32:44;-2.00;99.90
7204;DHT22;3643;52.460;13.322;2023-03-01T02:35:14;-2.10;99.90
7204;DHT22;3643;52.460;13.322;2023-03-01T02:37:44;-2.00;99.90
7204;DHT22;3643;52.460;13.322;2023-03-01T02:40:16;-2.10;99.90
7204;DHT22;3643;52.460;13.322;2023-03-01T02:42:50;-2.10;99.90
7204;DHT22;3643;52.460;13.322;2023-03-01T02:45:22;-2.10;99.90
7204;DHT22;3643;52.460;13.322;2023-03-01T02:47:54;-2.10;99.90
7204;DHT22;3643;52.460;13.322;2023-03-01T02:50:43;-2.20;99.90
7204;DHT22;3643;52.460;13.322;2023-03-01T02:53:19;-2.20;99.90
7204;DHT22;3643;52.460;13.322;2023-03-01T02:55:50;-2.20;99.90
7204;DHT22;3643;52.460;13.322;2023-03-01T02:58:18;-2.20;99.90
7204;DHT22;3643;52.460;13.322;2023-03-01T03:00:48;-2.20;99.90
7204;DHT22;3643;52.460;13.322;2023-03-01T03:03:17;-2.20;99.90
7204;DHT22;3643;52.460;13.322;2023-03-01T03:05:47;-2.20;99.90
7204;DHT22;3643;52.460;13.322;2023-03-01T03:08:16;-2.20;99.90
7204;DHT22;3643;52.460;13.322;2023-03-01T03:10:51;-2.20;99.90
7204;DHT22;3643;52.460;13.322;2023-03-01T03:13:19;-2.20;99.90
7204;DHT22;3643;52.460;13.322;2023-03-01T03:15:50;-2.20;99.90
7204;DHT22;3643;52.460;13.322;2023-03-01T03:18:18;-2.20;99.90
7204;DHT22;3643;52.460;13.322;2023-03-01T03:20:47;-2.20;99.90
7204;DHT22;3643;52.460;13.322;2023-03-01T03:23:19;-2.20;99.90
7204;DHT22;3643;52.460;13.322;2023-03-01T03:25:48;-2.20;99.90
7204;DHT22;3643;52.460;13.322;2023-03-01T03:28:17;-2.20;99.90
7204;DHT22;3643;52.460;13.322;2023-03-01T03:30:46;-2.20;99.90
7204;DHT22;3643;52.460;13.322;2023-03-01T03:33:17;-2.20;99.90
7204;DHT22;3643;52.460;13.322;2023-03-01T03:35:47;-2.20;99.90
7204;DHT22;3643;52.460;13.322;2023-03-01T03:38:18;-2.30;99.90
7204;DHT22;3643;52.460;13.322;2023-03-01T03:40:51;-2.30;99.90
7204;DHT22;3643;52.460;13.322;2023-03-01T03:43:21;-2.30;99.90
7204;DHT22;3643;52.460;13.322;2023-03-01T03:45:51;-2.40;99.90
7204;DHT22;3643;52.460;13.322;2023-03-01T03:48:24;-2.40;99.90
7204;DHT22;3643;52.460;13.322;2023-03-01T03:50:54;-2.40;99.90
7204;DHT22;3643;52.460;13.322;2023-03-01T03:53:25;-2.50;99.90
7204;DHT22;3643;52.460;13.322;2023-03-01T03:55:55;-2.50;99.90
7204;DHT22;3643;52.460;13.322;2023-03-01T03:58:24;-2.50;99.90
7204;DHT22;3643;52.460;13.322;2023-03-01T04:00:55;-2.50;99.90
7204;DHT22;3643;52.460;13.322;2023-03-01T04:03:26;-2.50;99.90
7204;DHT22;3643;52.460;13.322;2023-03-01T04:05:57;-2.50;99.90
7204;DHT22;3643;52.460;13.322;2023-03-01T04:08:27;-2.50;99.90
7204;DHT22;3643;52.460;13.322;2023-03-01T04:11:01;-2.50;99.90
7204;DHT22;3643;52.460;13.322;2023-03-01T04:13:51;-2.50;99.90
7204;DHT22;3643;52.460;13.322;2023-03-01T04:16:21;-2.50;99.90
7204;DHT22;3643;52.460;13.322;2023-03-01T04:18:51;-2.60;99.90
7204;DHT22;3643;52.460;13.322;2023-03-01T04:21:20;-2.50;99.90
7204;DHT22;3643;52.460;13.322;2023-03-01T04:23:49;-1.20;99.90
7204;DHT22;3643;52.460;13.322;2023-03-01T04:26:20;-2.40;99.90
7204;DHT22;3643;52.460;13.322;2023-03-01T04:28:48;-2.40;99.90
7204;DHT22;3643;52.460;13.322;2023-03-01T04:31:19;-2.50;99.90
7204;DHT22;3643;52.460;13.322;2023-03-01T04:33:52;-2.50;99.90
7204;DHT22;3643;52.460;13.322;2023-03-01T04:36:25;-2.50;99.90
7204;DHT22;3643;52.460;13.322;2023-03-01T04:38:54;-2.60;99.90
7204;DHT22;3643;52.460;13.322;2023-03-01T04:41:24;-2.60;99.90
7204;DHT22;3643;52.460;13.322;2023-03-01T04:43:53;-2.60;99.90
7204;DHT22;3643;52.460;13.322;2023-03-01T04:46:21;-2.30;99.90
7204;DHT22;3643;52.460;13.322;2023-03-01T04:48:51;-2.70;99.90
7204;DHT22;3643;52.460;13.322;2023-03-01T04:51:20;-2.70;99.90
7204;DHT22;3643;52.460;13.322;2023-03-01T04:53:48;-2.70;99.90
7204;DHT22;3643;52.460;13.322;2023-03-01T04:56:17;-2.70;99.90
7204;DHT22;3643;52.460;13.322;2023-03-01T04:58:46;-2.70;99.90
7204;DHT22;3643;52.460;13.322;2023-03-01T05:01:17;-2.70;99.90
7204;DHT22;3643;52.460;13.322;2023-03-01T05:03:48;-2.70;99.90
7204;DHT22;3643;52.460;13.322;2023-03-01T05:06:19;-2.80;99.90
7204;DHT22;3643;52.460;13.322;2023-03-01T05:08:47;-2.70;99.90
7204;DHT22;3643;52.460;13.322;2023-03-01T05:11:15;-2.70;99.90
7204;DHT22;3643;52.460;13.322;2023-03-01T05:13:43;-2.70;99.90
7204;DHT22;3643;52.460;13.322;2023-03-01T05:16:13;-2.70;99.90
7204;DHT22;3643;52.460;13.322;2023-03-01T05:18:41;-2.60;99.90
7204;DHT22;3643;52.460;13.322;2023-03-01T05:21:11;-2.70;99.90
7204;DHT22;3643;52.460;13.322;2023-03-01T05:23:41;-2.70;99.90
7204;DHT22;3643;52.460;13.322;2023-03-01T05:26:09;-2.70;99.90
7204;DHT22;3643;52.460;13.322;2023-03-01T05:28:53;-2.80;99.90
7204;DHT22;3643;52.460;13.322;2023-03-01T05:31:25;-2.80;99.90
7204;DHT22;3643;52.460;13.322;2023-03-01T05:33:53;-2.70;99.90
7204;DHT22;3643;52.460;13.322;2023-03-01T05:36:21;-2.80;99.90
7204;DHT22;3643;52.460;13.322;2023-03-01T05:38:51;-2.80;99.90
7204;DHT22;3643;52.460;13.322;2023-03-01T05:41:19;-2.80;99.90
7204;DHT22;3643;52.460;13.322;2023-03-01T05:43:47;-2.80;99.90
7204;DHT22;3643;52.460;13.322;2023-03-01T05:46:15;-2.80;99.90
7204;DHT22;3643;52.460;13.322;2023-03-01T05:48:43;-2.80;99.90
7204;DHT22;3643;52.460;13.322;2023-03-01T05:51:11;-2.80;99.90
7204;DHT22;3643;52.460;13.322;2023-03-01T05:53:39;-2.80;99.90
7204;DHT22;3643;52.460;13.322;2023-03-01T05:56:09;-2.80;99.90
7204;DHT22;3643;52.460;13.322;2023-03-01T05:58:37;-2.90;99.90
7204;DHT22;3643;52.460;13.322;2023-03-01T06:01:10;-2.80;99.90
7204;DHT22;3643;52.460;13.322;2023-03-01T06:03:38;-2.80;99.90
7204;DHT22;3643;52.460;13.322;2023-03-01T06:06:06;-2.80;99.90
7204;DHT22;3643;52.460;13.322;2023-03-01T06:08:34;-2.70;99.90
7204;DHT22;3643;52.460;13.322;2023-03-01T06:11:02;-2.70;99.90
7204;DHT22;3643;52.460;13.322;2023-03-01T06:13:33;-2.70;99.90
7204;DHT22;3643;52.460;13.322;2023-03-01T06:16:03;-2.60;99.90
7204;DHT22;3643;52.460;13.322;2023-03-01T06:18:32;-1.60;99.90
7204;DHT22;3643;52.460;13.322;2023-03-01T06:21:00;-2.50;99.90
7204;DHT22;3643;52.460;13.322;2023-03-01T06:23:28;-2.40;99.90
7204;DHT22;3643;52.460;13.322;2023-03-01T06:25:56;-2.30;99.90
7204;DHT22;3643;52.460;13.322;2023-03-01T06:28:24;-2.20;99.90
7204;DHT22;3643;52.460;13.322;2023-03-01T06:30:53;-2.10;99.90
7204;DHT22;3643;52.460;13.322;2023-03-01T06:33:21;-2.00;99.90
7204;DHT22;3643;52.460;13.322;2023-03-01T06:35:50;-1.80;99.90
7204;DHT22;3643;52.460;13.322;2023-03-01T06:38:19;-1.70;99.90
7204;DHT22;3643;52.460;13.322;2023-03-01T06:40:51;-1.50;99.90
7204;DHT22;3643;52.460;13.322;2023-03-01T06:43:20;-1.30;99.90
7204;DHT22;3643;52.460;13.322;2023-03-01T06:45:48;-1.10;99.90
7204;DHT22;3643;52.460;13.322;2023-03-01T06:48:18;-0.30;99.90
7204;DHT22;3643;52.460;13.322;2023-03-01T06:50:46;0.40;99.90
7204;DHT22;3643;52.460;13.322;2023-03-01T06:53:15;2.00;99.90
7204;DHT22;3643;52.460;13.322;2023-03-01T06:55:43;3.60;99.90
7204;DHT22;3643;52.460;13.322;2023-03-01T06:58:11;5.00;99.90
7204;DHT22;3643;52.460;13.322;2023-03-01T07:00:39;6.20;99.90
7204;DHT22;3643;52.460;13.322;2023-03-01T07:03:09;7.30;99.90
7204;DHT22;3643;52.460;13.322;2023-03-01T07:05:39;8.20;99.90
7204;DHT22;3643;52.460;13.322;2023-03-01T07:08:07;9.00;99.90
7204;DHT22;3643;52.460;13.322;2023-03-01T07:10:35;9.70;99.90
7204;DHT22;3643;52.460;13.322;2023-03-01T07:13:04;10.00;99.90
7204;DHT22;3643;52.460;13.322;2023-03-01T07:15:33;10.40;99.90
7204;DHT22;3643;52.460;13.322;2023-03-01T07:18:02;11.30;99.40
7204;DHT22;3643;52.460;13.322;2023-03-01T07:20:30;12.20;97.30
7204;DHT22;3643;52.460;13.322;2023-03-01T07:22:59;13.00;96.00
7204;DHT22;3643;52.460;13.322;2023-03-01T07:25:27;13.70;95.20
7204;DHT22;3643;52.460;13.322;2023-03-01T07:27:55;14.60;94.30
7204;DHT22;3643;52.460;13.322;2023-03-01T07:30:24;15.20;92.80
7204;DHT22;3643;52.460;13.322;2023-03-01T07:32:56;15.30;91.70
7204;DHT22;3643;52.460;13.322;2023-03-01T07:35:25;14.10;88.00
7204;DHT22;3643;52.460;13.322;2023-03-01T07:37:54;11.90;90.60
7204;DHT22;3643;52.460;13.322;2023-03-01T07:40:23;10.20;91.20
7204;DHT22;3643;52.460;13.322;2023-03-01T07:42:55;8.70;92.60
7204;DHT22;3643;52.460;13.322;2023-03-01T07:45:24;6.80;94.60
7204;DHT22;3643;52.460;13.322;2023-03-01T07:47:52;5.90;95.90
7204;DHT22;3643;52.460;13.322;2023-03-01T07:50:21;4.90;97.40
7204;DHT22;3643;52.460;13.322;2023-03-01T07:52:50;4.30;99.00
7204;DHT22;3643;52.460;13.322;2023-03-01T07:55:18;3.80;99.90
7204;DHT22;3643;52.460;13.322;2023-03-01T07:57:48;3.50;99.90
7204;DHT22;3643;52.460;13.322;2023-03-01T08:00:17;3.20;99.90
7204;DHT22;3643;52.460;13.322;2023-03-01T08:02:45;3.20;99.90
7204;DHT22;3643;52.460;13.322;2023-03-01T08:05:14;3.00;99.90
7204;DHT22;3643;52.460;13.322;2023-03-01T08:07:42;3.00;99.90
7204;DHT22;3643;52.460;13.322;2023-03-01T08:10:11;1.90;99.90
7204;DHT22;3643;52.460;13.322;2023-03-01T08:12:39;2.90;99.90
7204;DHT22;3643;52.460;13.322;2023-03-01T08:15:10;2.90;99.90
7204;DHT22;3643;52.460;13.322;2023-03-01T08:17:38;2.90;99.90
7204;DHT22;3643;52.460;13.322;2023-03-01T08:20:07;2.90;99.90
7204;DHT22;3643;52.460;13.322;2023-03-01T08:22:39;2.90;99.90
7204;DHT22;3643;52.460;13.322;2023-03-01T08:25:07;2.90;99.90
7204;DHT22;3643;52.460;13.322;2023-03-01T08:27:36;2.80;99.90
7204;DHT22;3643;52.460;13.322;2023-03-01T08:30:05;2.90;99.90
7204;DHT22;3643;52.460;13.322;2023-03-01T08:32:38;2.90;99.90
7204;DHT22;3643;52.460;13.322;2023-03-01T08:35:07;2.90;99.90
7204;DHT22;3643;52.460;13.322;2023-03-01T08:37:35;3.00;99.90
7204;DHT22;3643;52.460;13.322;2023-03-01T08:40:04;3.00;99.90
7204;DHT22;3643;52.460;13.322;2023-03-01T08:42:34;3.00;99.90
7204;DHT22;3643;52.460;13.322;2023-03-01T08:45:03;3.00;99.90
7204;DHT22;3643;52.460;13.322;2023-03-01T08:47:31;3.10;99.90
7204;DHT22;3643;52.460;13.322;2023-03-01T08:50:02;3.10;99.90
7204;DHT22;3643;52.460;13.322;2023-03-01T08:52:32;3.10;99.90
7204;DHT22;3643;52.460;13.322;2023-03-01T08:55:00;3.10;99.90
7204;DHT22;3643;52.460;13.322;2023-03-01T08:57:29;3.10;99.90
7204;DHT22;3643;52.460;13.322;2023-03-01T08:59:58;3.10;99.90
7204;DHT22;3643;52.460;13.322;2023-03-01T09:02:26;3.20;99.90
7204;DHT22;3643;52.460;13.322;2023-03-01T09:04:54;3.30;99.90
7204;DHT22;3643;52.460;13.322;2023-03-01T09:07:24;3.40;99.90
7204;DHT22;3643;52.460;13.322;2023-03-01T09:09:55;3.40;99.90
7204;DHT22;3643;52.460;13.322;2023-03-01T09:12:23;3.50;99.90
7204;DHT22;3643;52.460;13.322;2023-03-01T09:14:52;3.50;99.90
7204;DHT22;3643;52.460;13.322;2023-03-01T09:17:20;3.50;99.90
7204;DHT22;3643;52.460;13.322;2023-03-01T09:19:49;3.50;99.90
7204;DHT22;3643;52.460;13.322;2023-03-01T09:22:17;3.50;99.90
7204;DHT22;3643;52.460;13.322;2023-03-01T09:24:46;3.60;99.90
7204;DHT22;3643;52.460;13.322;2023-03-01T09:27:15;3.70;99.90
7204;DHT22;3643;52.460;13.322;2023-03-01T09:29:45;3.70;99.90
7204;DHT22;3643;52.460;13.322;2023-03-01T09:32:13;3.90;99.90
7204;DHT22;3643;52.460;13.322;2023-03-01T09:34:42;3.90;99.90
7204;DHT22;3643;52.460;13.322;2023-03-01T09:37:27;3.90;99.90
7204;DHT22;3643;52.460;13.322;2023-03-01T09:39:57;3.90;99.90
7204;DHT22;3643;52.460;13.322;2023-03-01T09:42:25;4.00;99.90
7204;DHT22;3643;52.460;13.322;2023-03-01T09:44:57;4.10;99.60
7204;DHT22;3643;52.460;13.322;2023-03-01T09:47:29;4.10;99.70
7204;DHT22;3643;52.460;13.322;2023-03-01T09:50:02;4.20;99.30
7204;DHT22;3643;52.460;13.322;2023-03-01T09:52:38;4.20;99.60
7204;DHT22;3643;52.460;13.322;2023-03-01T09:55:12;4.30;99.10
7204;DHT22;3643;52.460;13.322;2023-03-01T09:57:46;4.40;98.90
7204;DHT22;3643;52.460;13.322;2023-03-01T10:00:27;4.50;98.90
7204;DHT22;3643;52.460;13.322;2023-03-01T10:03:02;4.50;97.20
7204;DHT22;3643;52.460;13.322;2023-03-01T10:05:38;4.50;97.30
7204;DHT22;3643;52.460;13.322;2023-03-01T10:08:26;4.60;97.50
7204;DHT22;3643;52.460;13.322;2023-03-01T10:10:59;4.60;96.90
7204;DHT22;3643;52.460;13.322;2023-03-01T10:13:33;4.70;96.70
7204;DHT22;3643;52.460;13.322;2023-03-01T10:16:10;4.80;96.90
7204;DHT22;3643;52.460;13.322;2023-03-01T10:18:40;4.80;96.50
7204;DHT22;3643;52.460;13.322;2023-03-01T10:21:14;4.80;95.90
7204;DHT22;3643;52.460;13.322;2023-03-01T10:23:43;4.90;96.10
7204;DHT22;3643;52.460;13.322;2023-03-01T10:26:22;5.00;96.30
7204;DHT22;3643;52.460;13.322;2023-03-01T10:28:59;5.00;96.30
7204;DHT22;3643;52.460;13.322;2023-03-01T10:31:39;5.10;96.30
7204;DHT22;3643;52.460;13.322;2023-03-01T10:34:12;5.20;96.50
7204;DHT22;3643;52.460;13.322;2023-03-01T10:36:42;5.10;96.50
7204;DHT22;3643;52.460;13.322;2023-03-01T10:39:14;5.10;96.70
7204;DHT22;3643;52.460;13.322;2023-03-01T10:41:56;5.30;96.70
7204;DHT22;3643;52.460;13.322;2023-03-01T10:44:38;5.20;96.40
7204;DHT22;3643;52.460;13.322;2023-03-01T10:47:16;5.20;96.10
7204;DHT22;3643;52.460;13.322;2023-03-01T10:49:59;5.30;96.10
7204;DHT22;3643;52.460;13.322;2023-03-01T10:52:30;5.30;95.60
7204;DHT22;3643;52.460;13.322;2023-03-01T10:55:00;5.30;95.60
7204;DHT22;3643;52.460;13.322;2023-03-01T10:57:34;5.30;95.50
7204;DHT22;3643;52.460;13.322;2023-03-01T11:00:20;5.40;95.70
7204;DHT22;3643;52.460;13.322;2023-03-01T11:02:51;5.40;95.60
7204;DHT22;3643;52.460;13.322;2023-03-01T11:05:22;5.40;95.10
7204;DHT22;3643;52.460;13.322;2023-03-01T11:07:53;5.50;95.00
7204;DHT22;3643;52.460;13.322;2023-03-01T11:10:23;5.40;94.70
7204;DHT22;3643;52.460;13.322;2023-03-01T11:13:05;5.40;94.60
7204;DHT22;3643;52.460;13.322;2023-03-01T11:15:33;5.50;94.60
7204;DHT22;3643;52.460;13.322;2023-03-01T11:18:02;5.60;94.00
7204;DHT22;3643;52.460;13.322;2023-03-01T11:20:39;5.60;94.00
7204;DHT22;3643;52.460;13.322;2023-03-01T11:23:12;5.70;93.80
7204;DHT22;3643;52.460;13.322;2023-03-01T11:25:44;5.80;92.90
7204;DHT22;3643;52.460;13.322;2023-03-01T11:28:17;5.70;92.90
7204;DHT22;3643;52.460;13.322;2023-03-01T11:30:50;5.70;93.70
7204;DHT22;3643;52.460;13.322;2023-03-01T11:33:37;5.90;95.90
7204;DHT22;3643;52.460;13.322;2023-03-01T11:36:11;6.10;95.60
7204;DHT22;3643;52.460;13.322;2023-03-01T11:38:43;6.10;95.20
7204;DHT22;3643;52.460;13.322;2023-03-01T11:41:15;6.10;94.20
7204;DHT22;3643;52.460;13.322;2023-03-01T11:43:50;6.10;93.50
7204;DHT22;3643;52.460;13.322;2023-03-01T11:49:50;6.10;93.70
7204;DHT22;3643;52.460;13.322;2023-03-01T11:52:31;6.20;93.80
7204;DHT22;3643;52.460;13.322;2023-03-01T11:55:16;6.30;93.00
7204;DHT22;3643;52.460;13.322;2023-03-01T11:57:59;6.20;92.60
7204;DHT22;3643;52.460;13.322;2023-03-01T12:01:01;6.20;92.80
7204;DHT22;3643;52.460;13.322;2023-03-01T12:03:41;6.30;92.60
7204;DHT22;3643;52.460;13.322;2023-03-01T12:06:38;6.30;92.20
7204;DHT22;3643;52.460;13.322;2023-03-01T12:09:25;6.30;91.70
7204;DHT22;3643;52.460;13.322;2023-03-01T12:12:07;6.30;91.60
7204;DHT22;3643;52.460;13.322;2023-03-01T12:14:48;6.30;92.00
7204;DHT22;3643;52.460;13.322;2023-03-01T12:17:42;6.30;92.40
7204;DHT22;3643;52.460;13.322;2023-03-01T12:20:24;6.30;92.60
7204;DHT22;3643;52.460;13.322;2023-03-01T12:23:07;6.30;92.70
7204;DHT22;3643;52.460;13.322;2023-03-01T12:25:49;6.40;92.10
7204;DHT22;3643;52.460;13.322;2023-03-01T12:28:50;6.40;91.30
7204;DHT22;3643;52.460;13.322;2023-03-01T12:34:42;6.50;88.90
7204;DHT22;3643;52.460;13.322;2023-03-01T12:37:31;6.60;87.50
7204;DHT22;3643;52.460;13.322;2023-03-01T12:40:29;6.50;87.10
7204;DHT22;3643;52.460;13.322;2023-03-01T12:43:07;6.60;87.80
7204;DHT22;3643;52.460;13.322;2023-03-01T12:45:51;6.50;87.20
7204;DHT22;3643;52.460;13.322;2023-03-01T12:48:34;6.60;86.90
7204;DHT22;3643;52.460;13.322;2023-03-01T12:51:11;6.60;86.30
7204;DHT22;3643;52.460;13.322;2023-03-01T12:53:44;6.60;86.30
7204;DHT22;3643;52.460;13.322;2023-03-01T12:56:19;6.70;86.40
7204;DHT22;3643;52.460;13.322;2023-03-01T12:58:55;6.80;84.60
7204;DHT22;3643;52.460;13.322;2023-03-01T13:01:35;6.80;84.90
7204;DHT22;3643;52.460;13.322;2023-03-01T13:04:28;6.80;84.70
7204;DHT22;3643;52.460;13.322;2023-03-01T13:07:24;6.70;83.30
7204;DHT22;3643;52.460;13.322;2023-03-01T13:10:02;6.60;83.60
7204;DHT22;3643;52.460;13.322;2023-03-01T13:12:51;6.60;83.90
7204;DHT22;3643;52.460;13.322;2023-03-01T13:15:31;6.60;84.30
7204;DHT22;3643;52.460;13.322;2023-03-01T13:18:02;6.70;83.90
7204;DHT22;3643;52.460;13.322;2023-03-01T13:20:34;6.70;84.10
7204;DHT22;3643;52.460;13.322;2023-03-01T13:23:25;6.80;84.20
7204;DHT22;3643;52.460;13.322;2023-03-01T13:26:09;6.70;84.60
7204;DHT22;3643;52.460;13.322;2023-03-01T13:28:46;6.70;84.90
7204;DHT22;3643;52.460;13.322;2023-03-01T13:34:44;6.60;85.70
7204;DHT22;3643;52.460;13.322;2023-03-01T13:37:21;6.50;85.80
7204;DHT22;3643;52.460;13.322;2023-03-01T13:39:51;6.60;85.50
7204;DHT22;3643;52.460;13.322;2023-03-01T13:42:44;6.60;85.20
7204;DHT22;3643;52.460;13.322;2023-03-01T13:45:36;6.70;84.60
7204;DHT22;3643;52.460;13.322;2023-03-01T13:48:10;6.70;83.40
7204;DHT22;3643;52.460;13.322;2023-03-01T13:50:45;6.80;84.40
7204;DHT22;3643;52.460;13.322;2023-03-01T13:53:18;6.80;83.90
7204;DHT22;3643;52.460;13.322;2023-03-01T13:55:51;6.80;83.50
7204;DHT22;3643;52.460;13.322;2023-03-01T13:58:24;6.80;84.00
7204;DHT22;3643;52.460;13.322;2023-03-01T14:00:58;6.90;84.90
7204;DHT22;3643;52.460;13.322;2023-03-01T14:03:27;6.90;83.90
7204;DHT22;3643;52.460;13.322;2023-03-01T14:06:03;7.00;83.50
7204;DHT22;3643;52.460;13.322;2023-03-01T14:08:42;7.00;83.50
7204;DHT22;3643;52.460;13.322;2023-03-01T14:11:41;6.90;83.90
7204;DHT22;3643;52.460;13.322;2023-03-01T14:14:38;6.90;83.00
7204;DHT22;3643;52.460;13.322;2023-03-01T14:17:25;7.00;83.70
7204;DHT22;3643;52.460;13.322;2023-03-01T14:19:58;7.00;83.20
7204;DHT22;3643;52.460;13.322;2023-03-01T14:22:28;7.10;82.10
7204;DHT22;3643;52.460;13.322;2023-03-01T14:24:59;7.10;82.60
7204;DHT22;3643;52.460;13.322;2023-03-01T14:27:33;7.10;83.00
7204;DHT22;3643;52.460;13.322;2023-03-01T14:30:09;7.10;83.50
7204;DHT22;3643;52.460;13.322;2023-03-01T14:32:39;7.10;83.50
7204;DHT22;3643;52.460;13.322;2023-03-01T14:35:20;7.20;82.50
7204;DHT22;3643;52.460;13.322;2023-03-01T14:37:49;7.20;83.00
7204;DHT22;3643;52.460;13.322;2023-03-01T14:40:24;7.20;83.20
7204;DHT22;3643;52.460;13.322;2023-03-01T14:42:56;7.30;82.60
7204;DHT22;3643;52.460;13.322;2023-03-01T14:45:27;7.20;82.40
7204;DHT22;3643;52.460;13.322;2023-03-01T14:48:00;7.20;82.40
7204;DHT22;3643;52.460;13.322;2023-03-01T14:50:31;7.30;82.90
7204;DHT22;3643;52.460;13.322;2023-03-01T14:53:01;7.30;82.80
7204;DHT22;3643;52.460;13.322;2023-03-01T14:55:32;7.20;83.20
7204;DHT22;3643;52.460;13.322;2023-03-01T14:58:05;7.20;82.20
7204;DHT22;3643;52.460;13.322;2023-03-01T15:00:35;7.30;82.80
7204;DHT22;3643;52.460;13.322;2023-03-01T15:03:08;7.30;83.00
7204;DHT22;3643;52.460;13.322;2023-03-01T15:05:41;7.30;82.80
7204;DHT22;3643;52.460;13.322;2023-03-01T15:08:17;7.30;82.40
7204;DHT22;3643;52.460;13.322;2023-03-01T15:10:58;7.30;81.70
7204;DHT22;3643;52.460;13.322;2023-03-01T15:13:30;7.30;82.20
7204;DHT22;3643;52.460;13.322;2023-03-01T15:16:09;7.20;82.50
7204;DHT22;3643;52.460;13.322;2023-03-01T15:18:44;7.20;83.00
7204;DHT22;3643;52.460;13.322;2023-03-01T15:21:18;7.20;83.70
7204;DHT22;3643;52.460;13.322;2023-03-01T15:23:53;7.10;84.50
7204;DHT22;3643;52.460;13.322;2023-03-01T15:26:28;7.10;84.30
7204;DHT22;3643;52.460;13.322;2023-03-01T15:28:59;7.10;84.30
7204;DHT22;3643;52.460;13.322;2023-03-01T15:31:29;7.80;85.30
7204;DHT22;3643;52.460;13.322;2023-03-01T15:34:09;7.00;85.00
7204;DHT22;3643;52.460;13.322;2023-03-01T15:36:46;7.00;85.80
7204;DHT22;3643;52.460;13.322;2023-03-01T15:39:38;6.90;86.40
7204;DHT22;3643;52.460;13.322;2023-03-01T15:42:11;6.90;87.10
7204;DHT22;3643;52.460;13.322;2023-03-01T15:44:41;6.90;87.50
7204;DHT22;3643;52.460;13.322;2023-03-01T15:47:29;6.80;88.40
7204;DHT22;3643;52.460;13.322;2023-03-01T15:49:59;6.80;89.40
7204;DHT22;3643;52.460;13.322;2023-03-01T15:52:32;6.80;89.80
7204;DHT22;3643;52.460;13.322;2023-03-01T15:55:05;6.90;90.10
7204;DHT22;3643;52.460;13.322;2023-03-01T15:57:34;6.90;90.40
7204;DHT22;3643;52.460;13.322;2023-03-01T16:00:05;6.90;90.30
7204;DHT22;3643;52.460;13.322;2023-03-01T16:02:38;6.90;90.40
7204;DHT22;3643;52.460;13.322;2023-03-01T16:05:19;6.80;90.60
7204;DHT22;3643;52.460;13.322;2023-03-01T16:07:47;6.70;90.80
7204;DHT22;3643;52.460;13.322;2023-03-01T16:10:16;6.60;91.10
7204;DHT22;3643;52.460;13.322;2023-03-01T16:12:46;6.60;91.30
7204;DHT22;3643;52.460;13.322;2023-03-01T16:15:20;6.60;91.50
7204;DHT22;3643;52.460;13.322;2023-03-01T16:17:49;6.50;91.70
7204;DHT22;3643;52.460;13.322;2023-03-01T16:20:19;6.50;91.80
7204;DHT22;3643;52.460;13.322;2023-03-01T16:22:58;6.50;91.80
7204;DHT22;3643;52.460;13.322;2023-03-01T16:25:28;6.50;91.90
7204;DHT22;3643;52.460;13.322;2023-03-01T16:27:56;6.40;92.00
7204;DHT22;3643;52.460;13.322;2023-03-01T16:30:28;6.30;92.00
7204;DHT22;3643;52.460;13.322;2023-03-01T16:32:57;6.30;92.10
7204;DHT22;3643;52.460;13.322;2023-03-01T16:35:26;6.30;92.20
7204;DHT22;3643;52.460;13.322;2023-03-01T16:37:56;6.10;92.10
7204;DHT22;3643;52.460;13.322;2023-03-01T16:40:26;6.20;92.20